sensor_id;sensor_type;location;lat;lon;timestamp;temperature;humidity
21805;DHT22;11064;47.102;15.452;2022-10-31T05:03:29;10.40;99.90
21805;DHT22;11064;47.102;15.452;2022-10-31T05:05:55;10.50;99.90
21805;DHT22;11064;47.102;15.452;2022-10-31T05:08:21;10.50;99.90
21805;DHT22;11064;47.102;15.452;2022-10-31T05:10:47;10.50;99.90
21805;DHT22;11064;47.102;15.452;2022-10-31T05:13:12;10.60;99.90
21805;DHT22;11064;47.102;15.452;2022-10-31T05:15:40;10.50;99.90
21805;DHT22;11064;47.102;15.452;2022-10-31T05:18:06;10.50;99.90
21805;DHT22;11064;47.102;15.452;2022-10-31T05:20:31;10.50;99.90
21805;DHT22;11064;47.102;15.452;2022-10-31T05:22:58;10.60;99.90
21805;DHT22;11064;47.102;15.452;2022-10-31T05:25:26;10.60;99.90
21805;DHT22;11064;47.102;15.452;2022-10-31T05:27:53;10.60;99.90
21805;DHT22;11064;47.102;15.452;2022-10-31T05:30:25;10.40;99.90
21805;DHT22;11064;47.102;15.452;2022-10-31T05:32:52;10.30;99.90
21805;DHT22;11064;47.102;15.452;2022-10-31T05:35:25;10.30;99.90
21805;DHT22;11064;47.102;15.452;2022-10-31T05:37:51;10.40;99.90
21805;DHT22;11064;47.102;15.452;2022-10-31T05:40:19;10.30;99.90
21805;DHT22;11064;47.102;15.452;2022-10-31T05:42:45;10.40;99.90
21805;DHT22;11064;47.102;15.452;2022-10-31T05:45:12;10.40;99.90
21805;DHT22;11064;47.102;15.452;2022-10-31T05:47:39;10.50;99.90
21805;DHT22;11064;47.102;15.452;2022-10-31T05:50:06;10.40;99.90
21805;DHT22;11064;47.102;15.452;2022-10-31T05:52:32;10.40;99.90
21805;DHT22;11064;47.102;15.452;2022-10-31T05:54:58;10.50;99.90
21805;DHT22;11064;47.102;15.452;2022-10-31T05:57:24;10.60;99.90
21805;DHT22;11064;47.102;15.452;2022-10-31T05:59:50;10.70;99.90
21805;DHT22;11064;47.102;15.452;2022-10-31T06:02:21;10.80;99.90
21805;DHT22;11064;47.102;15.452;2022-10-31T06:04:47;10.90;99.90
21805;DHT22;11064;47.102;15.452;2022-10-31T06:07:13;11.00;99.90
21805;DHT22;11064;47.102;15.452;2022-10-31T06:09:38;11.00;99.90
21805;DHT22;11064;47.102;15.452;2022-10-31T06:12:04;11.10;99.90
21805;DHT22;11064;47.102;15.452;2022-10-31T06:14:30;11.20;99.90
21805;DHT22;11064;47.102;15.452;2022-10-31T06:16:56;11.20;99.90
21805;DHT22;11064;47.102;15.452;2022-10-31T06:19:21;11.20;99.90
21805;DHT22;11064;47.102;15.452;2022-10-31T06:21:47;11.20;99.90
21805;DHT22;11064;47.102;15.452;2022-10-31T06:24:13;11.20;99.90
21805;DHT22;11064;47.102;15.452;2022-10-31T06:26:40;11.20;99.90
21805;DHT22;11064;47.102;15.452;2022-10-31T06:29:06;11.20;99.90
21805;DHT22;11064;47.102;15.452;2022-10-31T06:31:32;11.20;99.90
21805;DHT22;11064;47.102;15.452;2022-10-31T06:33:58;11.30;99.90
21805;DHT22;11064;47.102;15.452;2022-10-31T06:36:24;11.40;99.90
21805;DHT22;11064;47.102;15.452;2022-10-31T06:38:49;11.40;99.90
21805;DHT22;11064;47.102;15.452;2022-10-31T06:41:15;11.40;99.90
21805;DHT22;11064;47.102;15.452;2022-10-31T06:43:41;11.50;99.90
21805;DHT22;11064;47.102;15.452;2022-10-31T06:46:06;11.50;99.90
21805;DHT22;11064;47.102;15.452;2022-10-31T06:48:32;11.50;99.90
21805;DHT22;11064;47.102;15.452;2022-10-31T06:50:59;11.40;99.90
21805;DHT22;11064;47.102;15.452;2022-10-31T06:53:26;11.50;99.90
21805;DHT22;11064;47.102;15.452;2022-10-31T06:55:52;11.50;99.90
21805;DHT22;11064;47.102;15.452;2022-10-31T06:58:17;11.50;99.90
21805;DHT22;11064;47.102;15.452;2022-10-31T07:00:43;11.60;99.90
21805;DHT22;11064;47.102;15.452;2022-10-31T07:03:11;11.60;99.90
21805;DHT22;11064;47.102;15.452;2022-10-31T07:05:37;11.70;99.90
21805;DHT22;11064;47.102;15.452;2022-10-31T07:08:05;11.70;99.90
21805;DHT22;11064;47.102;15.452;2022-10-31T07:10:33;11.70;99.90
21805;DHT22;11064;47.102;15.452;2022-10-31T07:13:04;11.80;99.90
21805;DHT22;11064;47.102;15.452;2022-10-31T07:15:32;12.00;99.90
21805;DHT22;11064;47.102;15.452;2022-10-31T07:18:03;12.10;99.90
21805;DHT22;11064;47.102;15.452;2022-10-31T07:20:29;12.20;99.90
21805;DHT22;11064;47.102;15.452;2022-10-31T07:22:56;12.20;99.90
21805;DHT22;11064;47.102;15.452;2022-10-31T07:25:22;12.30;99.90
21805;DHT22;11064;47.102;15.452;2022-10-31T07:27:48;12.30;99.90
21805;DHT22;11064;47.102;15.452;2022-10-31T07:30:14;12.40;99.90
21805;DHT22;11064;47.102;15.452;2022-10-31T07:32:46;12.50;99.90
21805;DHT22;11064;47.102;15.452;2022-10-31T07:35:19;12.50;99.90
21805;DHT22;11064;47.102;15.452;2022-10-31T07:37:46;12.60;99.90
21805;DHT22;11064;47.102;15.452;2022-10-31T07:40:12;12.70;99.90
21805;DHT22;11064;47.102;15.452;2022-10-31T07:42:42;12.80;99.90
21805;DHT22;11064;47.102;15.452;2022-10-31T07:45:10;12.80;99.90
21805;DHT22;11064;47.102;15.452;2022-10-31T07:47:47;12.80;99.90
21805;DHT22;11064;47.102;15.452;2022-10-31T07:50:18;12.90;99.90
21805;DHT22;11064;47.102;15.452;2022-10-31T07:52:44;13.00;99.90
21805;DHT22;11064;47.102;15.452;2022-10-31T07:55:11;13.10;99.90
21805;DHT22;11064;47.102;15.452;2022-10-31T07:57:37;13.30;99.90
21805;DHT22;11064;47.102;15.452;2022-10-31T08:00:08;13.40;99.90
21805;DHT22;11064;47.102;15.452;2022-10-31T08:02:34;13.40;99.90
21805;DHT22;11064;47.102;15.452;2022-10-31T08:05:00;13.60;99.90
21805;DHT22;11064;47.102;15.452;2022-10-31T08:07:28;13.70;99.90
21805;DHT22;11064;47.102;15.452;2022-10-31T08:09:55;13.80;99.90
21805;DHT22;11064;47.102;15.452;2022-10-31T08:12:21;13.90;99.90
21805;DHT22;11064;47.102;15.452;2022-10-31T08:14:47;13.90;99.90
21805;DHT22;11064;47.102;15.452;2022-10-31T08:17:13;14.00;99.90
21805;DHT22;11064;47.102;15.452;2022-10-31T08:19:38;14.10;99.90
21805;DHT22;11064;47.102;15.452;2022-10-31T08:22:04;14.10;99.90
21805;DHT22;11064;47.102;15.452;2022-10-31T08:24:30;14.30;99.90
21805;DHT22;11064;47.102;15.452;2022-10-31T08:26:55;14.30;99.90
21805;DHT22;11064;47.102;15.452;2022-10-31T08:29:21;14.40;99.90
21805;DHT22;11064;47.102;15.452;2022-10-31T08:31:47;14.40;99.90
21805;DHT22;11064;47.102;15.452;2022-10-31T08:34:13;14.50;99.90
21805;DHT22;11064;47.102;15.452;2022-10-31T08:36:38;14.60;99.90
21805;DHT22;11064;47.102;15.452;2022-10-31T08:39:04;14.70;99.90
21805;DHT22;11064;47.102;15.452;2022-10-31T08:41:30;14.80;99.90
21805;DHT22;11064;47.102;15.452;2022-10-31T08:43:56;14.80;99.90
21805;DHT22;11064;47.102;15.452;2022-10-31T08:46:22;15.00;99.90
21805;DHT22;11064;47.102;15.452;2022-10-31T08:48:48;15.00;99.90
21805;DHT22;11064;47.102;15.452;2022-10-31T08:51:14;15.20;99.90
21805;DHT22;11064;47.102;15.452;2022-10-31T08:53:40;15.20;99.90
21805;DHT22;11064;47.102;15.452;2022-10-31T08:56:06;15.30;99.90
21805;DHT22;11064;47.102;15.452;2022-10-31T08:58:31;15.40;99.90
21805;DHT22;11064;47.102;15.452;2022-10-31T09:00:59;15.50;99.90
21805;DHT22;11064;47.102;15.452;2022-10-31T09:03:28;15.60;99.90
21805;DHT22;11064;47.102;15.452;2022-10-31T09:05:59;15.70;99.90
21805;DHT22;11064;47.102;15.452;2022-10-31T09:08:25;15.80;99.90
21805;DHT22;11064;47.102;15.452;2022-10-31T09:10:51;15.90;99.90
21805;DHT22;11064;47.102;15.452;2022-10-31T09:13:20;16.00;99.90
21805;DHT22;11064;47.102;15.452;2022-10-31T09:15:48;16.10;99.90
21805;DHT22;11064;47.102;15.452;2022-10-31T09:18:16;16.20;99.90
21805;DHT22;11064;47.102;15.452;2022-10-31T09:20:43;16.20;99.90
21805;DHT22;11064;47.102;15.452;2022-10-31T09:23:18;16.30;99.90
21805;DHT22;11064;47.102;15.452;2022-10-31T09:25:44;16.40;99.90
21805;DHT22;11064;47.102;15.452;2022-10-31T09:28:12;16.40;99.90
21805;DHT22;11064;47.102;15.452;2022-10-31T09:30:39;16.40;99.90
21805;DHT22;11064;47.102;15.452;2022-10-31T09:33:08;16.50;99.90
21805;DHT22;11064;47.102;15.452;2022-10-31T09:35:35;16.50;99.90
21805;DHT22;11064;47.102;15.452;2022-10-31T09:38:02;16.60;99.90
21805;DHT22;11064;47.102;15.452;2022-10-31T09:41:06;16.70;99.90
21805;DHT22;11064;47.102;15.452;2022-10-31T09:43:56;16.80;99.90
21805;DHT22;11064;47.102;15.452;2022-10-31T09:46:44;16.90;99.90
21805;DHT22;11064;47.102;15.452;2022-10-31T09:49:36;17.00;99.90
21805;DHT22;11064;47.102;15.452;2022-10-31T09:55:23;17.20;99.90
21805;DHT22;11064;47.102;15.452;2022-10-31T09:57:53;17.20;99.90
21805;DHT22;11064;47.102;15.452;2022-10-31T10:00:20;17.20;99.90
21805;DHT22;11064;47.102;15.452;2022-10-31T10:02:51;17.20;99.90
21805;DHT22;11064;47.102;15.452;2022-10-31T10:05:40;17.40;99.90
21805;DHT22;11064;47.102;15.452;2022-10-31T10:08:10;17.50;99.90
21805;DHT22;11064;47.102;15.452;2022-10-31T10:10:59;17.60;99.90
21805;DHT22;11064;47.102;15.452;2022-10-31T10:33:12;17.80;99.90
21805;DHT22;11064;47.102;15.452;2022-10-31T10:35:59;17.80;99.90
21805;DHT22;11064;47.102;15.452;2022-10-31T10:38:52;17.90;99.90
21805;DHT22;11064;47.102;15.452;2022-10-31T10:41:22;17.90;99.90
21805;DHT22;11064;47.102;15.452;2022-10-31T10:43:52;17.90;99.90
21805;DHT22;11064;47.102;15.452;2022-10-31T10:46:21;17.90;99.90
21805;DHT22;11064;47.102;15.452;2022-10-31T10:58:02;17.90;99.90
21805;DHT22;11064;47.102;15.452;2022-10-31T11:00:38;17.90;99.90
21805;DHT22;11064;47.102;15.452;2022-10-31T11:03:04;18.00;99.90
21805;DHT22;11064;47.102;15.452;2022-10-31T11:05:53;18.00;99.90
21805;DHT22;11064;47.102;15.452;2022-10-31T11:08:32;18.10;99.90
21805;DHT22;11064;47.102;15.452;2022-10-31T11:11:04;18.00;99.90
21805;DHT22;11064;47.102;15.452;2022-10-31T11:13:31;18.10;99.90
21805;DHT22;11064;47.102;15.452;2022-10-31T11:16:07;18.10;99.90
21805;DHT22;11064;47.102;15.452;2022-10-31T11:18:42;18.10;99.90
21805;DHT22;11064;47.102;15.452;2022-10-31T11:21:29;18.20;99.90
21805;DHT22;11064;47.102;15.452;2022-10-31T11:24:03;18.20;99.90
21805;DHT22;11064;47.102;15.452;2022-10-31T11:26:29;18.20;99.90
21805;DHT22;11064;47.102;15.452;2022-10-31T11:28:57;18.20;99.90
21805;DHT22;11064;47.102;15.452;2022-10-31T11:31:25;18.20;99.90
21805;DHT22;11064;47.102;15.452;2022-10-31T11:34:01;18.20;99.90
21805;DHT22;11064;47.102;15.452;2022-10-31T11:36:37;18.20;99.90
21805;DHT22;11064;47.102;15.452;2022-10-31T11:39:05;18.30;99.90
21805;DHT22;11064;47.102;15.452;2022-10-31T11:41:36;18.30;99.90
21805;DHT22;11064;47.102;15.452;2022-10-31T11:46:49;18.20;99.90
21805;DHT22;11064;47.102;15.452;2022-10-31T11:49:39;18.20;99.90
21805;DHT22;11064;47.102;15.452;2022-10-31T11:52:27;18.10;99.90
21805;DHT22;11064;47.102;15.452;2022-10-31T11:55:16;18.10;99.90
21805;DHT22;11064;47.102;15.452;2022-10-31T12:00:38;18.00;99.90
21805;DHT22;11064;47.102;15.452;2022-10-31T12:08:21;17.90;99.90
21805;DHT22;11064;47.102;15.452;2022-10-31T12:16:22;17.90;99.90
21805;DHT22;11064;47.102;15.452;2022-10-31T12:19:00;17.80;99.90
21805;DHT22;11064;47.102;15.452;2022-10-31T12:21:52;17.80;99.90
21805;DHT22;11064;47.102;15.452;2022-10-31T12:24:59;17.80;99.90
21805;DHT22;11064;47.102;15.452;2022-10-31T12:30:23;17.80;99.90
21805;DHT22;11064;47.102;15.452;2022-10-31T12:46:25;17.70;99.90
21805;DHT22;11064;47.102;15.452;2022-10-31T12:57:03;17.60;99.90
21805;DHT22;11064;47.102;15.452;2022-10-31T13:07:42;17.50;99.90
21805;DHT22;11064;47.102;15.452;2022-10-31T13:12:39;17.40;99.90
21805;DHT22;11064;47.102;15.452;2022-10-31T13:15:16;17.50;99.90
21805;DHT22;11064;47.102;15.452;2022-10-31T13:17:59;17.40;99.90
21805;DHT22;11064;47.102;15.452;2022-10-31T13:23:32;17.30;99.90
21805;DHT22;11064;47.102;15.452;2022-10-31T13:26:01;17.30;99.90
21805;DHT22;11064;47.102;15.452;2022-10-31T13:28:45;17.30;99.90
21805;DHT22;11064;47.102;15.452;2022-10-31T13:31:11;17.30;99.90
21805;DHT22;11064;47.102;15.452;2022-10-31T13:36:36;17.20;99.90
21805;DHT22;11064;47.102;15.452;2022-10-31T13:39:30;17.30;99.90
21805;DHT22;11064;47.102;15.452;2022-10-31T13:44:46;17.20;99.90
21805;DHT22;11064;47.102;15.452;2022-10-31T13:47:24;17.20;99.90
21805;DHT22;11064;47.102;15.452;2022-10-31T13:49:50;17.10;99.90
21805;DHT22;11064;47.102;15.452;2022-10-31T13:52:23;17.00;99.90
21805;DHT22;11064;47.102;15.452;2022-10-31T13:54:51;17.00;99.90
21805;DHT22;11064;47.102;15.452;2022-10-31T13:57:30;16.90;99.90
21805;DHT22;11064;47.102;15.452;2022-10-31T14:00:13;16.90;99.90
21805;DHT22;11064;47.102;15.452;2022-10-31T14:02:53;16.90;99.90
21805;DHT22;11064;47.102;15.452;2022-10-31T14:05:31;16.80;99.90
21805;DHT22;11064;47.102;15.452;2022-10-31T14:08:01;16.80;99.90
21805;DHT22;11064;47.102;15.452;2022-10-31T14:10:38;16.70;99.90
21805;DHT22;11064;47.102;15.452;2022-10-31T14:13:17;16.70;99.90
21805;DHT22;11064;47.102;15.452;2022-10-31T14:16:06;16.70;99.90
21805;DHT22;11064;47.102;15.452;2022-10-31T14:18:45;16.60;99.90
21805;DHT22;11064;47.102;15.452;2022-10-31T14:21:37;16.50;99.90
21805;DHT22;11064;47.102;15.452;2022-10-31T14:29:33;16.30;99.90
21805;DHT22;11064;47.102;15.452;2022-10-31T14:40:21;16.10;99.90
21805;DHT22;11064;47.102;15.452;2022-10-31T14:46:02;15.90;99.90
21805;DHT22;11064;47.102;15.452;2022-10-31T14:48:53;15.80;99.90
21805;DHT22;11064;47.102;15.452;2022-10-31T14:51:38;15.70;99.90
21805;DHT22;11064;47.102;15.452;2022-10-31T14:54:06;15.60;99.90
21805;DHT22;11064;47.102;15.452;2022-10-31T14:56:35;15.60;99.90
21805;DHT22;11064;47.102;15.452;2022-10-31T14:59:07;15.50;99.90
21805;DHT22;11064;47.102;15.452;2022-10-31T15:01:36;15.40;99.90
21805;DHT22;11064;47.102;15.452;2022-10-31T15:04:16;15.30;99.90
21805;DHT22;11064;47.102;15.452;2022-10-31T15:06:45;15.20;99.90
21805;DHT22;11064;47.102;15.452;2022-10-31T15:11:48;15.00;99.90
21805;DHT22;11064;47.102;15.452;2022-10-31T15:14:29;14.80;99.90
21805;DHT22;11064;47.102;15.452;2022-10-31T15:17:01;14.80;99.90
21805;DHT22;11064;47.102;15.452;2022-10-31T15:19:29;14.60;99.90
21805;DHT22;11064;47.102;15.452;2022-10-31T15:21:57;14.50;99.90
21805;DHT22;11064;47.102;15.452;2022-10-31T15:24:34;14.40;99.90
21805;DHT22;11064;47.102;15.452;2022-10-31T15:27:02;14.30;99.90
21805;DHT22;11064;47.102;15.452;2022-10-31T15:29:28;14.10;99.90
21805;DHT22;11064;47.102;15.452;2022-10-31T15:32:17;14.10;99.90
21805;DHT22;11064;47.102;15.452;2022-10-31T15:34:44;13.90;99.90
21805;DHT22;11064;47.102;15.452;2022-10-31T15:37:15;13.80;99.90
21805;DHT22;11064;47.102;15.452;2022-10-31T15:39:42;13.70;99.90
21805;DHT22;11064;47.102;15.452;2022-10-31T15:42:26;13.60;99.90
21805;DHT22;11064;47.102;15.452;2022-10-31T15:47:53;13.40;99.90
21805;DHT22;11064;47.102;15.452;2022-10-31T15:50:38;13.30;99.90
21805;DHT22;11064;47.102;15.452;2022-10-31T15:53:13;13.10;99.90
21805;DHT22;11064;47.102;15.452;2022-10-31T15:55:49;13.00;99.90
21805;DHT22;11064;47.102;15.452;2022-10-31T15:58:16;12.90;99.90
21805;DHT22;11064;47.102;15.452;2022-10-31T16:00:43;12.90;99.90
21805;DHT22;11064;47.102;15.452;2022-10-31T16:05:46;12.70;99.90
21805;DHT22;11064;47.102;15.452;2022-10-31T16:13:35;12.50;99.90
21805;DHT22;11064;47.102;15.452;2022-10-31T16:16:04;12.40;99.90
21805;DHT22;11064;47.102;15.452;2022-10-31T16:18:35;12.30;99.90
21805;DHT22;11064;47.102;15.452;2022-10-31T16:21:03;12.20;99.90
21805;DHT22;11064;47.102;15.452;2022-10-31T16:23:29;12.10;99.90
21805;DHT22;11064;47.102;15.452;2022-10-31T16:25:55;12.10;99.90
21805;DHT22;11064;47.102;15.452;2022-10-31T16:28:25;12.00;99.90
21805;DHT22;11064;47.102;15.452;2022-10-31T16:30:53;11.90;99.90
21805;DHT22;11064;47.102;15.452;2022-10-31T16:33:31;11.90;99.90
21805;DHT22;11064;47.102;15.452;2022-10-31T16:35:59;11.80;99.90
21805;DHT22;11064;47.102;15.452;2022-10-31T16:38:27;11.80;99.90
21805;DHT22;11064;47.102;15.452;2022-10-31T16:40:53;11.70;99.90
21805;DHT22;11064;47.102;15.452;2022-10-31T16:43:20;11.70;99.90
21805;DHT22;11064;47.102;15.452;2022-10-31T16:45:50;11.70;99.90
21805;DHT22;11064;47.102;15.452;2022-10-31T16:48:19;11.60;99.90
21805;DHT22;11064;47.102;15.452;2022-10-31T16:50:47;11.60;99.90
21805;DHT22;11064;47.102;15.452;2022-10-31T16:53:13;11.50;99.90
21805;DHT22;11064;47.102;15.452;2022-10-31T16:55:54;11.50;99.90
21805;DHT22;11064;47.102;15.452;2022-10-31T16:58:29;11.40;99.90
21805;DHT22;11064;47.102;15.452;2022-10-31T17:00:56;11.40;99.90
21805;DHT22;11064;47.102;15.452;2022-10-31T17:03:22;11.30;99.90
21805;DHT22;11064;47.102;15.452;2022-10-31T17:05:48;11.20;99.90
21805;DHT22;11064;47.102;15.452;2022-10-31T17:08:14;11.20;99.90
21805;DHT22;11064;47.102;15.452;2022-10-31T17:10:41;11.20;99.90
21805;DHT22;11064;47.102;15.452;2022-10-31T17:13:15;11.10;99.90
21805;DHT22;11064;47.102;15.452;2022-10-31T17:15:44;11.10;99.90
21805;DHT22;11064;47.102;15.452;2022-10-31T17:18:15;11.00;99.90
21805;DHT22;11064;47.102;15.452;2022-10-31T17:20:41;11.00;99.90
21805;DHT22;11064;47.102;15.452;2022-10-31T17:23:12;10.90;99.90
21805;DHT22;11064;47.102;15.452;2022-10-31T17:25:39;10.80;99.90
21805;DHT22;11064;47.102;15.452;2022-10-31T17:28:05;10.80;99.90
21805;DHT22;11064;47.102;15.452;2022-10-31T17:30:31;10.70;99.90
21805;DHT22;11064;47.102;15.452;2022-10-31T17:32:58;10.70;99.90
21805;DHT22;11064;47.102;15.452;2022-10-31T17:35:23;10.70;99.90
21805;DHT22;11064;47.102;15.452;2022-10-31T17:37:49;10.70;99.90
21805;DHT22;11064;47.102;15.452;2022-10-31T17:40:20;10.70;99.90
21805;DHT22;11064;47.102;15.452;2022-10-31T17:42:54;10.60;99.90
21805;DHT22;11064;47.102;15.452;2022-10-31T17:45:21;10.50;99.90
21805;DHT22;11064;47.102;15.452;2022-10-31T17:47:48;10.50;99.90
21805;DHT22;11064;47.102;15.452;2022-10-31T17:50:15;10.40;99.90
21805;DHT22;11064;47.102;15.452;2022-10-31T17:52:41;10.40;99.90
21805;DHT22;11064;47.102;15.452;2022-10-31T17:55:08;10.40;99.90
21805;DHT22;11064;47.102;15.452;2022-10-31T17:57:35;10.40;99.90
21805;DHT22;11064;47.102;15.452;2022-10-31T18:00:07;10.40;99.90
21805;DHT22;11064;47.102;15.452;2022-10-31T18:02:35;10.30;99.90
21805;DHT22;11064;47.102;15.452;2022-10-31T18:05:02;10.30;99.90
21805;DHT22;11064;47.102;15.452;2022-10-31T18:07:28;10.40;99.90
21805;DHT22;11064;47.102;15.452;2022-10-31T18:09:53;10.40;99.90
21805;DHT22;11064;47.102;15.452;2022-10-31T18:12:19;10.30;99.90
21805;DHT22;11064;47.102;15.452;2022-10-31T18:14:45;10.20;99.90
21805;DHT22;11064;47.102;15.452;2022-10-31T18:17:11;10.10;99.90
21805;DHT22;11064;47.102;15.452;2022-10-31T18:19:36;10.10;99.90
21805;DHT22;11064;47.102;15.452;2022-10-31T18:22:02;10.10;99.90
21805;DHT22;11064;47.102;15.452;2022-10-31T18:24:28;10.10;99.90
21805;DHT22;11064;47.102;15.452;2022-10-31T18:26:54;10.00;99.90
21805;DHT22;11064;47.102;15.452;2022-10-31T18:29:20;10.00;99.90
21805;DHT22;11064;47.102;15.452;2022-10-31T18:31:46;10.00;99.90
21805;DHT22;11064;47.102;15.452;2022-10-31T18:34:14;9.90;99.90
21805;DHT22;11064;47.102;15.452;2022-10-31T18:36:40;9.90;99.90
21805;DHT22;11064;47.102;15.452;2022-10-31T18:39:06;9.80;99.90
21805;DHT22;11064;47.102;15.452;2022-10-31T18:41:32;9.80;99.90
21805;DHT22;11064;47.102;15.452;2022-10-31T18:43:58;9.90;99.90
21805;DHT22;11064;47.102;15.452;2022-10-31T18:46:27;10.00;99.90
21805;DHT22;11064;47.102;15.452;2022-10-31T18:48:53;9.90;99.90
21805;DHT22;11064;47.102;15.452;2022-10-31T18:51:19;9.80;99.90
21805;DHT22;11064;47.102;15.452;2022-10-31T18:53:56;9.80;99.90
21805;DHT22;11064;47.102;15.452;2022-10-31T18:56:23;9.70;99.90
21805;DHT22;11064;47.102;15.452;2022-10-31T18:58:49;9.70;99.90
21805;DHT22;11064;47.102;15.452;2022-10-31T19:01:16;9.70;99.90
21805;DHT22;11064;47.102;15.452;2022-10-31T19:03:42;9.60;99.90
21805;DHT22;11064;47.102;15.452;2022-10-31T19:06:09;9.60;99.90
21805;DHT22;11064;47.102;15.452;2022-10-31T19:08:36;9.60;99.90
21805;DHT22;11064;47.102;15.452;2022-10-31T19:11:08;9.60;99.90
21805;DHT22;11064;47.102;15.452;2022-10-31T19:13:35;9.60;99.90
21805;DHT22;11064;47.102;15.452;2022-10-31T19:18:30;9.50;99.90
21805;DHT22;11064;47.102;15.452;2022-10-31T19:20:56;9.40;99.90
21805;DHT22;11064;47.102;15.452;2022-10-31T19:23:22;9.40;99.90
21805;DHT22;11064;47.102;15.452;2022-10-31T19:25:47;9.40;99.90
21805;DHT22;11064;47.102;15.452;2022-10-31T19:28:13;9.40;99.90
21805;DHT22;11064;47.102;15.452;2022-10-31T19:30:39;9.40;99.90
21805;DHT22;11064;47.102;15.452;2022-10-31T19:33:04;9.40;99.90
21805;DHT22;11064;47.102;15.452;2022-10-31T19:35:30;9.40;99.90
21805;DHT22;11064;47.102;15.452;2022-10-31T19:37:56;9.30;99.90
21805;DHT22;11064;47.102;15.452;2022-10-31T19:40:22;9.30;99.90
21805;DHT22;11064;47.102;15.452;2022-10-31T19:42:48;9.20;99.90
21805;DHT22;11064;47.102;15.452;2022-10-31T19:45:13;9.20;99.90
21805;DHT22;11064;47.102;15.452;2022-10-31T19:47:39;9.20;99.90
21805;DHT22;11064;47.102;15.452;2022-10-31T19:50:05;9.30;99.90
21805;DHT22;11064;47.102;15.452;2022-10-31T19:52:35;9.20;99.90
21805;DHT22;11064;47.102;15.452;2022-10-31T19:55:01;9.30;99.90
21805;DHT22;11064;47.102;15.452;2022-10-31T19:57:27;9.40;99.90
21805;DHT22;11064;47.102;15.452;2022-10-31T19:59:52;9.50;99.90
21805;DHT22;11064;47.102;15.452;2022-10-31T20:02:18;9.50;99.90
21805;DHT22;11064;47.102;15.452;2022-10-31T20:04:45;9.60;99.90
21805;DHT22;11064;47.102;15.452;2022-10-31T20:07:11;9.60;99.90
21805;DHT22;11064;47.102;15.452;2022-10-31T20:09:37;9.60;99.90
21805;DHT22;11064;47.102;15.452;2022-10-31T20:12:03;9.60;99.90
21805;DHT22;11064;47.102;15.452;2022-10-31T20:14:29;9.60;99.90
21805;DHT22;11064;47.102;15.452;2022-10-31T20:16:54;9.60;99.90
21805;DHT22;11064;47.102;15.452;2022-10-31T20:19:20;9.60;99.90
21805;DHT22;11064;47.102;15.452;2022-10-31T20:21:46;9.60;99.90
21805;DHT22;11064;47.102;15.452;2022-10-31T20:24:12;9.60;99.90
21805;DHT22;11064;47.102;15.452;2022-10-31T20:26:39;9.70;99.90
21805;DHT22;11064;47.102;15.452;2022-10-31T20:29:06;9.70;99.90
21805;DHT22;11064;47.102;15.452;2022-10-31T20:31:35;9.70;99.90
21805;DHT22;11064;47.102;15.452;2022-10-31T20:34:01;9.70;99.90
21805;DHT22;11064;47.102;15.452;2022-10-31T20:36:27;9.70;99.90
21805;DHT22;11064;47.102;15.452;2022-10-31T20:38:55;9.70;99.90
21805;DHT22;11064;47.102;15.452;2022-10-31T20:41:21;9.70;99.90
21805;DHT22;11064;47.102;15.452;2022-10-31T20:43:47;9.80;99.90
21805;DHT22;11064;47.102;15.452;2022-10-31T20:46:18;9.70;99.90
21805;DHT22;11064;47.102;15.452;2022-10-31T20:48:45;9.70;99.90
21805;DHT22;11064;47.102;15.452;2022-10-31T20:51:13;9.70;99.90
21805;DHT22;11064;47.102;15.452;2022-10-31T20:53:39;9.70;99.90
21805;DHT22;11064;47.102;15.452;2022-10-31T20:56:14;9.70;99.90
21805;DHT22;11064;47.102;15.452;2022-10-31T20:58:41;9.70;99.90
21805;DHT22;11064;47.102;15.452;2022-10-31T21:01:13;9.60;99.90
21805;DHT22;11064;47.102;15.452;2022-10-31T21:03:39;9.70;99.90
21805;DHT22;11064;47.102;15.452;2022-10-31T21:06:06;9.70;99.90
21805;DHT22;11064;47.102;15.452;2022-10-31T21:08:33;9.70;99.90
21805;DHT22;11064;47.102;15.452;2022-10-31T21:10:59;9.70;99.90
21805;DHT22;11064;47.102;15.452;2022-10-31T21:13:29;9.70;99.90
21805;DHT22;11064;47.102;15.452;2022-10-31T21:16:05;9.60;99.90
21805;DHT22;11064;47.102;15.452;2022-10-31T21:18:33;9.60;99.90
21805;DHT22;11064;47.102;15.452;2022-10-31T21:20:59;9.60;99.90
21805;DHT22;11064;47.102;15.452;2022-10-31T21:23:24;9.60;99.90
21805;DHT22;11064;47.102;15.452;2022-10-31T21:25:50;9.50;99.90
21805;DHT22;11064;47.102;15.452;2022-10-31T21:28:17;9.50;99.90
21805;DHT22;11064;47.102;15.452;2022-10-31T21:30:45;9.60;99.90
21805;DHT22;11064;47.102;15.452;2022-10-31T21:33:12;9.50;99.90
21805;DHT22;11064;47.102;15.452;2022-10-31T21:35:37;9.50;99.90
21805;DHT22;11064;47.102;15.452;2022-10-31T21:38:03;9.50;99.90
21805;DHT22;11064;47.102;15.452;2022-10-31T21:40:29;9.40;99.90
21805;DHT22;11064;47.102;15.452;2022-10-31T21:42:56;9.40;99.90
21805;DHT22;11064;47.102;15.452;2022-10-31T21:45:23;9.40;99.90
21805;DHT22;11064;47.102;15.452;2022-10-31T21:47:49;9.40;99.90
21805;DHT22;11064;47.102;15.452;2022-10-31T21:50:16;9.40;99.90
21805;DHT22;11064;47.102;15.452;2022-10-31T21:52:42;9.50;99.90
21805;DHT22;11064;47.102;15.452;2022-10-31T21:55:09;9.50;99.90
21805;DHT22;11064;47.102;15.452;2022-10-31T21:57:35;9.50;99.90
21805;DHT22;11064;47.102;15.452;2022-10-31T22:00:03;9.50;99.90
21805;DHT22;11064;47.102;15.452;2022-10-31T22:02:31;9.50;99.90
21805;DHT22;11064;47.102;15.452;2022-10-31T22:04:57;9.50;99.90
21805;DHT22;11064;47.102;15.452;2022-10-31T22:07:22;9.50;99.90
21805;DHT22;11064;47.102;15.452;2022-10-31T22:09:48;9.50;99.90
21805;DHT22;11064;47.102;15.452;2022-10-31T22:12:14;9.50;99.90
21805;DHT22;11064;47.102;15.452;2022-10-31T22:14:41;9.50;99.90
21805;DHT22;11064;47.102;15.452;2022-10-31T22:17:07;9.50;99.90
21805;DHT22;11064;47.102;15.452;2022-10-31T22:19:33;9.50;99.90
21805;DHT22;11064;47.102;15.452;2022-10-31T22:21:59;9.50;99.90
21805;DHT22;11064;47.102;15.452;2022-10-31T22:24:25;9.50;99.90
21805;DHT22;11064;47.102;15.452;2022-10-31T22:26:51;9.50;99.90
21805;DHT22;11064;47.102;15.452;2022-10-31T22:29:18;9.50;99.90
21805;DHT22;11064;47.102;15.452;2022-10-31T22:31:46;9.50;99.90
21805;DHT22;11064;47.102;15.452;2022-10-31T22:34:14;9.50;99.90
21805;DHT22;11064;47.102;15.452;2022-10-31T22:36:41;9.50;99.90
21805;DHT22;11064;47.102;15.452;2022-10-31T22:39:09;9.60;99.90
21805;DHT22;11064;47.102;15.452;2022-10-31T22:41:35;9.50;99.90